createdAt,value
2023-05-05T00:06:07.373Z,0.0
2023-05-05T00:18:11.654Z,0.0
2023-05-05T00:24:32.705Z,0.0
2023-05-05T00:33:51.291Z,0.0
2023-05-05T00:55:40.289Z,0.0
2023-05-05T01:02:02.742Z,0.0
2023-05-05T01:08:25.268Z,0.0
2023-05-05T01:14:47.515Z,0.0
2023-05-05T01:21:08.191Z,0.0
2023-05-05T01:27:29.006Z,0.0
2023-05-05T01:33:49.137Z,0.0
2023-05-05T01:51:14.779Z,0.0
2023-05-05T02:04:25.783Z,0.0
2023-05-05T02:10:48.815Z,0.0
2023-05-05T02:23:12.069Z,0.0
2023-05-05T02:36:30.613Z,0.0
2023-05-05T02:42:51.127Z,0.0
2023-05-05T02:49:12.081Z,0.0
2023-05-05T02:57:26.019Z,0.0
2023-05-05T03:03:49.317Z,0.0
2023-05-05T03:10:11.664Z,0.0
2023-05-05T03:16:31.645Z,0.0
2023-05-05T03:22:52.517Z,0.0
2023-05-05T03:29:14.230Z,0.0
2023-05-05T03:35:33.642Z,0.0
2023-05-05T03:41:54.767Z,0.0
2023-05-05T03:52:29.454Z,0.0
2023-05-05T03:58:51.970Z,0.0
2023-05-05T04:05:13.185Z,0.0
2023-05-05T04:11:43.665Z,2.5478595317725743
2023-05-05T04:18:06.167Z,3.7923076923076913
2023-05-05T04:24:29.466Z,4.913444816053516
2023-05-05T04:30:52.154Z,9.560200668896323
2023-05-05T04:37:15.424Z,15.308528428093648
2023-05-05T04:43:37.909Z,17.288193979933105
2023-05-05T04:53:11.376Z,27.32451505016723
2023-05-05T04:59:37.146Z,32.46859531772575
2023-05-05T05:06:10.093Z,32.87645484949832
2023-05-05T05:17:34.559Z,25.304548494983283
2023-05-05T05:24:21.144Z,20.680535117056856
2023-05-05T05:30:42.936Z,20.453712374581936
2023-05-05T05:37:04.538Z,17.913311036789295
2023-05-05T05:43:26.149Z,24.476220735785954
2023-05-05T05:49:47.650Z,87.8173244147157
2023-05-05T05:56:09.789Z,166.04494983277584
2023-05-05T06:02:31.766Z,110.60311036789294
2023-05-05T06:10:26.611Z,83.98625418060206
2023-05-05T06:18:15.392Z,73.62190635451502
2023-05-05T06:24:37.595Z,64.52474916387963
2023-05-05T06:31:46.401Z,70.43668896321066
2023-05-05T06:39:19.942Z,60.54996655518389
2023-05-05T06:45:43.875Z,59.2753846153846
2023-05-05T06:52:06.018Z,64.81685618729095
2023-05-05T06:58:28.579Z,65.72016722408027
2023-05-05T07:04:59.098Z,48.72899665551841
2023-05-05T07:11:21.297Z,43.9701337792642
2023-05-05T07:17:43.733Z,40.02337792642144
2023-05-05T07:24:05.876Z,30.639331103678906
2023-05-05T07:30:28.220Z,25.989765886287618
2023-05-05T07:36:49.891Z,18.8179264214047
2023-05-05T07:49:02.973Z,27.84605351170569
2023-05-05T07:55:24.433Z,28.508294314381274
2023-05-05T08:01:46.041Z,42.2101672240803
2023-05-05T08:08:07.376Z,56.939197324414714
2023-05-05T08:14:28.382Z,83.55849498327763
2023-05-05T08:20:49.696Z,134.40468227424745
2023-05-05T08:27:11.741Z,314.74541806020045
2023-05-05T08:33:33.019Z,275.2517056856186
2023-05-05T08:39:53.754Z,187.46916387959874
2023-05-05T08:53:47.255Z,107.93618729096984
2023-05-05T09:00:09.442Z,43.63688963210701
2023-05-05T09:07:22.372Z,23.455652173913045
2023-05-05T09:14:50.487Z,29.50642140468226
2023-05-05T09:21:12.291Z,43.77394648829432
2023-05-05T09:27:33.484Z,56.772508361204025
2023-05-05T09:33:58.532Z,73.95020066889633
2023-05-05T09:42:34.521Z,94.9998662207358
2023-05-05T09:48:57.102Z,155.15755852842815
2023-05-05T09:55:19.993Z,118.00331103678927
2023-05-05T10:01:42.678Z,119.23404682274249
2023-05-05T10:08:05.620Z,247.94301003344464
2023-05-05T10:21:44.504Z,279.63943143812696
2023-05-05T10:32:40.654Z,194.81538461538452
2023-05-05T10:39:12.776Z,271.73983277591975
2023-05-05T10:45:35.705Z,228.3742474916388
2023-05-05T10:51:58.182Z,285.82816053511726
2023-05-05T10:58:21.068Z,374.24117056856153
2023-05-05T11:04:43.982Z,349.79160535117046
2023-05-05T11:11:06.803Z,358.7839464882945
2023-05-05T11:26:14.666Z,371.12026755852855
2023-05-05T11:35:15.830Z,345.46852842809363
2023-05-05T11:41:38.691Z,385.28866220735756
2023-05-05T11:51:28.512Z,356.12280936454835
2023-05-05T11:57:52.555Z,414.1423076923077
2023-05-05T12:04:15.468Z,338.05080267558515
2023-05-05T12:28:34.344Z,466.602943143813
2023-05-05T12:34:57.155Z,570.0042140468229
2023-05-05T12:41:21.150Z,448.39719063545175
2023-05-05T12:47:44.524Z,361.849531772575
2023-05-05T12:54:06.662Z,409.9520401337792
2023-05-05T13:03:16.080Z,281.06337792642154
2023-05-05T13:13:15.917Z,295.0625083612039
2023-05-05T13:19:40.026Z,265.83354515050166
2023-05-05T13:29:02.214Z,301.0361204013377
2023-05-05T13:41:07.875Z,215.82886287625408
2023-05-05T13:47:31.352Z,200.39277591973243
2023-05-05T13:53:54.540Z,233.59287625418057
2023-05-05T14:07:48.365Z,149.40464882943147
2023-05-05T14:14:13.691Z,152.96555183946492
2023-05-05T14:20:36.624Z,127.32655518394651
2023-05-05T14:28:03.922Z,155.0109698996655
2023-05-05T14:34:30.420Z,131.60267558528432
2023-05-05T14:44:56.688Z,124.9054849498327
2023-05-05T14:51:20.303Z,121.56317725752511
2023-05-05T15:05:18.552Z,108.95625418060195
2023-05-05T15:11:40.803Z,104.18401337792639
2023-05-05T15:18:55.335Z,106.52558528428094
2023-05-05T15:25:17.947Z,80.78869565217403
2023-05-05T15:31:40.233Z,59.101505016722406
2023-05-05T15:38:02.799Z,51.149799331103644
2023-05-05T15:44:24.975Z,33.65551839464881
2023-05-05T15:50:47.155Z,16.09742474916388
2023-05-05T15:57:09.859Z,10.937458193979936
2023-05-05T16:08:05.947Z,6.682541806020066
2023-05-05T16:14:28.372Z,4.241906354515053
2023-05-05T16:22:12.890Z,1.9242140468227449
2023-05-05T16:28:35.182Z,1.178628762541806
2023-05-05T16:34:57.715Z,1.0470568561872902
2023-05-05T16:41:20.031Z,0.0
2023-05-05T16:47:39.323Z,0.0
2023-05-05T16:58:31.597Z,0.0
2023-05-05T17:04:50.641Z,0.0
2023-05-05T17:11:11.499Z,0.0
2023-05-05T17:17:31.587Z,0.3158528428093647
2023-05-05T17:23:53.579Z,1.378662207357861
2023-05-05T17:30:14.723Z,1.4770903010033447
2023-05-05T17:36:36.302Z,1.308795986622073
2023-05-05T17:42:57.905Z,0.3177926421404682
2023-05-05T17:51:16.329Z,0.0
2023-05-05T17:57:41.769Z,0.0
2023-05-05T18:07:22.679Z,0.0
2023-05-05T18:13:43.105Z,0.0
2023-05-05T18:21:41.347Z,0.0
2023-05-05T18:28:00.389Z,0.0
2023-05-05T18:35:44.108Z,0.0
2023-05-05T18:44:56.016Z,0.0
2023-05-05T18:52:02.260Z,0.0
2023-05-05T18:58:21.684Z,0.0
2023-05-05T19:05:10.564Z,0.0
2023-05-05T19:11:30.288Z,0.0
2023-05-05T19:28:39.070Z,0.0
2023-05-05T19:42:18.814Z,0.0
2023-05-05T19:50:55.421Z,0.0
2023-05-05T19:57:14.834Z,0.0
2023-05-05T20:03:33.802Z,0.0
2023-05-05T20:09:53.002Z,0.0
2023-05-05T20:16:12.149Z,0.0
2023-05-05T20:27:35.973Z,0.0
2023-05-05T20:33:56.121Z,0.0
2023-05-05T20:40:15.121Z,0.0
2023-05-05T20:50:51.482Z,0.0
2023-05-05T21:04:24.110Z,0.0
2023-05-05T21:10:43.113Z,0.0
2023-05-05T21:18:12.257Z,0.0
2023-05-05T21:28:07.421Z,0.0
2023-05-05T21:34:26.590Z,0.0
2023-05-05T21:45:16.720Z,0.0
2023-05-05T22:00:17.048Z,0.0
2023-05-05T22:06:35.346Z,0.0
2023-05-05T22:14:43.153Z,0.0
2023-05-05T22:21:01.968Z,0.0
2023-05-05T22:27:20.299Z,0.0
2023-05-05T22:34:05.405Z,0.0
2023-05-05T22:40:42.206Z,0.0
2023-05-05T22:47:01.518Z,0.0
2023-05-05T22:53:21.869Z,0.0
2023-05-05T23:04:18.441Z,0.0
2023-05-05T23:10:37.936Z,0.0
2023-05-05T23:18:42.059Z,0.0
2023-05-05T23:34:48.199Z,0.0
2023-05-05T23:41:07.912Z,0.0
2023-05-05T23:47:29.890Z,0.0
2023-05-05T23:53:48.640Z,0.0
